createdAt,value
2019-01-06T00:00:32.052Z,38.2
2019-01-06T00:01:32.065Z,37.3
2019-01-06T00:02:32.124Z,36.5
2019-01-06T00:03:32.057Z,36.3
2019-01-06T00:04:32.069Z,36.1
2019-01-06T00:05:32.139Z,35.8
2019-01-06T00:06:32.039Z,35.6
2019-01-06T00:07:32.064Z,35.5
2019-01-06T00:08:32.136Z,35.1
2019-01-06T00:09:32.062Z,34.5
2019-01-06T00:10:32.172Z,33.9
2019-01-06T00:11:32.044Z,33.7
2019-01-06T00:12:32.036Z,33.2
2019-01-06T00:13:32.075Z,33
2019-01-06T00:14:32.057Z,32.9
2019-01-06T00:15:32.131Z,33
2019-01-06T00:16:32.047Z,33.1
2019-01-06T00:17:32.091Z,33.4
2019-01-06T00:18:32.046Z,33.5
2019-01-06T00:19:32.062Z,33.8
2019-01-06T00:20:32.109Z,34
2019-01-06T00:21:32.059Z,33.9
2019-01-06T00:22:32.095Z,33.8
2019-01-06T00:23:32.064Z,33.8
2019-01-06T00:24:32.112Z,33.9
2019-01-06T00:25:32.042Z,33.8
2019-01-06T00:26:32.049Z,33.6
2019-01-06T00:27:32.122Z,33.5
2019-01-06T00:28:32.032Z,33.2
2019-01-06T00:29:32.057Z,33.4
2019-01-06T00:30:32.039Z,33.7
2019-01-06T00:31:32.041Z,33.9
2019-01-06T00:32:32.110Z,33.8
2019-01-06T00:33:32.089Z,34
2019-01-06T00:34:32.039Z,34.3
2019-01-06T00:35:32.050Z,34.3
2019-01-06T00:36:32.038Z,34.4
2019-01-06T00:37:32.033Z,34.5
2019-01-06T00:38:32.089Z,34.3
2019-01-06T00:39:32.043Z,33.7
2019-01-06T00:40:32.036Z,33.8
2019-01-06T00:41:32.046Z,34
2019-01-06T00:42:32.106Z,34.6
2019-01-06T00:43:32.043Z,35.2
2019-01-06T00:44:32.033Z,35.9
2019-01-06T00:45:32.038Z,35.9
2019-01-06T00:46:32.042Z,35.5
2019-01-06T00:47:32.100Z,35.5
2019-01-06T00:48:32.039Z,35.3
2019-01-06T00:49:32.021Z,35.3
2019-01-06T00:50:32.094Z,34.8
2019-01-06T00:51:32.098Z,35
2019-01-06T00:52:32.034Z,35.1
2019-01-06T00:53:32.045Z,35.2
2019-01-06T00:54:32.034Z,35.2
2019-01-06T00:55:32.018Z,35.3
2019-01-06T00:56:32.100Z,35
2019-01-06T00:57:32.033Z,35.7
2019-01-06T00:58:32.026Z,36.2
2019-01-06T00:59:32.020Z,36.8
2019-01-06T01:00:32.025Z,37
2019-01-06T01:01:32.149Z,37.3
2019-01-06T01:02:32.035Z,37.2
2019-01-06T01:03:32.024Z,37.4
2019-01-06T01:04:32.025Z,37.6
2019-01-06T01:05:32.033Z,37.4
2019-01-06T01:06:32.077Z,37.6
2019-01-06T01:07:32.022Z,37.9
2019-01-06T01:08:32.038Z,38.2
2019-01-06T01:09:32.033Z,38.6
2019-01-06T01:10:32.032Z,38.6
2019-01-06T01:11:32.073Z,38.3
2019-01-06T01:12:32.096Z,38.3
2019-01-06T01:13:32.105Z,38.4
2019-01-06T01:14:32.020Z,38.5
2019-01-06T01:15:32.028Z,38.1
2019-01-06T01:16:32.042Z,38.1
2019-01-06T01:17:32.007Z,37.8
2019-01-06T01:18:32.087Z,37.8
2019-01-06T01:19:32.036Z,38
2019-01-06T01:20:32.029Z,38.6
2019-01-06T01:21:32.055Z,38.8
2019-01-06T01:22:32.007Z,39.7
2019-01-06T01:23:32.091Z,40.7
2019-01-06T01:24:32.006Z,41.1
2019-01-06T01:25:32.021Z,41
2019-01-06T01:26:32.017Z,41.5
2019-01-06T01:27:32.079Z,41.7
2019-01-06T01:28:32.019Z,41.7
2019-01-06T01:29:32.027Z,41.5
2019-01-06T01:30:32.084Z,41
2019-01-06T01:31:32.030Z,40.5
2019-01-06T01:32:32.019Z,40.3
2019-01-06T01:33:32.054Z,40.2
2019-01-06T01:34:32.088Z,40
2019-01-06T01:35:32.029Z,39.5
2019-01-06T01:36:32.016Z,39.2
2019-01-06T01:37:32.016Z,38.9
2019-01-06T01:38:32.003Z,38.8
2019-01-06T01:39:32.095Z,38.2
2019-01-06T01:40:32.013Z,37.6
2019-01-06T01:41:32.025Z,36.9
2019-01-06T01:42:32.079Z,36.2
2019-01-06T01:43:32.102Z,35.6
2019-01-06T01:44:31.992Z,35
2019-01-06T01:45:32.027Z,34.7
2019-01-06T01:46:32.012Z,34.3
2019-01-06T01:47:32.012Z,34
2019-01-06T01:48:32.065Z,33.8
2019-01-06T01:49:32.012Z,33.4
2019-01-06T01:50:32.013Z,32.9
2019-01-06T01:51:32.017Z,32.2
2019-01-06T01:52:31.998Z,31.8
2019-01-06T01:53:32.013Z,31.4
2019-01-06T01:54:32.017Z,30.8
2019-01-06T01:55:32.050Z,30.4
2019-01-06T01:56:32.008Z,30.2
2019-01-06T01:57:32.077Z,29.8
2019-01-06T01:58:32.000Z,29.8
2019-01-06T01:59:32.010Z,29.8
2019-01-06T02:00:32.064Z,29.7
2019-01-06T02:01:32.050Z,29.6
2019-01-06T02:02:32.003Z,29.3
2019-01-06T02:03:32.071Z,29
2019-01-06T02:04:32.006Z,28.8
2019-01-06T02:05:32.002Z,28.5
2019-01-06T02:06:32.090Z,28
2019-01-06T02:07:32.070Z,27.7
2019-01-06T02:08:32.003Z,27.5
2019-01-06T02:09:32.005Z,27.2
2019-01-06T02:10:31.997Z,27
2019-01-06T02:11:31.978Z,26.9
2019-01-06T02:12:32.057Z,26.7
2019-01-06T02:13:32.005Z,26.4
2019-01-06T02:14:32.000Z,26.1
2019-01-06T02:15:31.997Z,25.9
2019-01-06T02:16:32.048Z,25.9
2019-01-06T02:17:32.065Z,25.9
2019-01-06T02:18:32.001Z,25.7
2019-01-06T02:19:32.001Z,25.8
2019-01-06T02:20:32.013Z,25.9
2019-01-06T02:21:32.075Z,25.9
2019-01-06T02:22:31.991Z,25.8
2019-01-06T02:23:31.985Z,25.8
2019-01-06T02:24:31.998Z,26.2
2019-01-06T02:25:31.999Z,26.5
2019-01-06T02:26:32.062Z,26.8
2019-01-06T02:27:31.985Z,27.2
2019-01-06T02:28:32.046Z,28
2019-01-06T02:29:31.993Z,28.6
2019-01-06T02:30:31.998Z,28.9
2019-01-06T02:31:31.997Z,29.2
2019-01-06T02:32:33.920Z,29.5
2019-01-06T02:33:32.042Z,29.3
2019-01-06T02:34:31.990Z,29.1
2019-01-06T02:35:32.049Z,29.1
2019-01-06T02:36:32.051Z,28.9
2019-01-06T02:37:31.989Z,29.3
2019-01-06T02:38:31.972Z,29.5
2019-01-06T02:39:32.053Z,29.7
2019-01-06T02:40:32.054Z,29.7
2019-01-06T02:41:31.987Z,29.7
2019-01-06T02:42:31.993Z,29.7
2019-01-06T02:43:31.986Z,29.9
2019-01-06T02:44:31.973Z,30.1
2019-01-06T02:45:32.061Z,30.3
2019-01-06T02:46:31.980Z,30.6
2019-01-06T02:47:32.061Z,30.4
2019-01-06T02:48:31.991Z,30.2
2019-01-06T02:49:31.978Z,29.9
2019-01-06T02:50:31.994Z,30
2019-01-06T02:51:31.985Z,30.1
2019-01-06T02:52:32.049Z,30.1
2019-01-06T02:53:31.979Z,30.2
2019-01-06T02:54:31.979Z,30.2
2019-01-06T02:55:31.963Z,30
2019-01-06T02:56:32.039Z,30.1
2019-01-06T02:57:31.985Z,29.8
2019-01-06T02:58:31.983Z,29.4
2019-01-06T02:59:31.987Z,29.4
2019-01-06T03:00:32.037Z,29.4
2019-01-06T03:01:31.965Z,29.3
2019-01-06T03:02:31.972Z,29.3
2019-01-06T03:03:31.989Z,29.2
2019-01-06T03:04:31.986Z,29.3
2019-01-06T03:05:32.055Z,29
2019-01-06T03:06:31.971Z,28.6
2019-01-06T03:07:31.979Z,28.3
2019-01-06T03:08:31.980Z,28
2019-01-06T03:09:31.970Z,28.1
2019-01-06T03:10:32.071Z,28
2019-01-06T03:11:31.954Z,27.8
2019-01-06T03:12:32.052Z,27.7
2019-01-06T03:13:31.968Z,27.5
2019-01-06T03:14:31.974Z,27.3
2019-01-06T03:15:32.046Z,27
2019-01-06T03:16:31.962Z,26.9
2019-01-06T03:17:31.967Z,26.8
2019-01-06T03:18:32.041Z,26.8
2019-01-06T03:19:31.980Z,26.7
2019-01-06T03:20:31.966Z,26.7
2019-01-06T03:21:32.044Z,26.4
2019-01-06T03:22:31.963Z,26.3
2019-01-06T03:23:31.968Z,26
2019-01-06T03:24:31.967Z,25.7
2019-01-06T03:25:31.971Z,25.4
2019-01-06T03:26:32.042Z,25.2
2019-01-06T03:27:31.969Z,24.8
2019-01-06T03:28:31.976Z,24.2
2019-01-06T03:29:32.021Z,23.9
2019-01-06T03:30:31.975Z,23.6
2019-01-06T03:31:31.961Z,23.2
2019-01-06T03:32:31.965Z,22.9
2019-01-06T03:33:31.957Z,22.6
2019-01-06T03:34:31.962Z,22.5
2019-01-06T03:35:31.961Z,22.4
2019-01-06T03:36:32.025Z,22.1
2019-01-06T03:37:32.000Z,21.9
2019-01-06T03:38:31.952Z,21.6
2019-01-06T03:39:31.956Z,21.3
2019-01-06T03:40:31.962Z,21.1
2019-01-06T03:41:32.014Z,20.8
2019-01-06T03:42:32.038Z,20.4
2019-01-06T03:43:32.014Z,20.2
2019-01-06T03:44:31.953Z,19.8
2019-01-06T03:45:31.963Z,19.5
2019-01-06T03:46:32.021Z,19.3
2019-01-06T03:47:31.964Z,18.9
2019-01-06T03:48:31.979Z,18.6
2019-01-06T03:49:31.944Z,18.4
2019-01-06T03:50:31.960Z,17.8
2019-01-06T03:51:32.006Z,17.5
2019-01-06T03:52:31.958Z,17
2019-01-06T03:53:31.948Z,16.4
2019-01-06T03:54:31.956Z,15.7
2019-01-06T03:55:31.946Z,14.9
2019-01-06T03:56:31.963Z,13.8
2019-01-06T03:57:32.027Z,12.8
2019-01-06T03:58:31.951Z,12.5
2019-01-06T03:59:31.958Z,11.7
2019-01-06T04:00:31.939Z,10.7
2019-01-06T04:01:32.030Z,10.1
2019-01-06T04:02:31.946Z,9.3
2019-01-06T04:03:31.951Z,8.5
2019-01-06T04:04:31.964Z,7.8
2019-01-06T04:05:31.951Z,7.5
2019-01-06T04:06:32.013Z,7
2019-01-06T04:07:31.959Z,6.7
2019-01-06T04:08:31.955Z,6.4
2019-01-06T04:09:31.948Z,6.2
2019-01-06T04:10:31.956Z,6.3
2019-01-06T04:11:32.003Z,6.1
2019-01-06T04:12:31.949Z,5.9
2019-01-06T04:13:31.970Z,5.4
2019-01-06T04:14:31.986Z,5.1
2019-01-06T04:15:31.951Z,4.6
2019-01-06T04:16:32.022Z,4.8
2019-01-06T04:17:31.941Z,5.1
2019-01-06T04:18:31.946Z,4.7
2019-01-06T04:19:31.953Z,5
2019-01-06T04:20:31.948Z,5.1
2019-01-06T04:21:31.998Z,5.4
2019-01-06T04:22:31.927Z,5.1
2019-01-06T04:23:32.011Z,4.6
2019-01-06T04:24:31.944Z,4.2
2019-01-06T04:25:31.932Z,3.8
2019-01-06T04:26:31.936Z,3.4
2019-01-06T04:27:31.985Z,3.3
2019-01-06T04:28:31.943Z,3.3
2019-01-06T04:29:31.999Z,3.2
2019-01-06T04:30:31.946Z,3
2019-01-06T04:31:31.939Z,3
2019-01-06T04:32:31.994Z,3.1
2019-01-06T04:33:32.000Z,3.1
2019-01-06T04:34:31.938Z,3
2019-01-06T04:35:31.956Z,2.7
2019-01-06T04:36:31.928Z,2.7
2019-01-06T04:37:31.945Z,2.8
2019-01-06T04:38:31.987Z,2.6
2019-01-06T04:39:32.002Z,2.5
2019-01-06T04:40:31.942Z,2.3
2019-01-06T04:41:32.007Z,2.3
2019-01-06T04:42:31.931Z,2.3
2019-01-06T04:43:31.947Z,2.6
2019-01-06T04:44:31.926Z,2.8
2019-01-06T04:45:31.933Z,2.9
2019-01-06T04:46:31.988Z,2.8
2019-01-06T04:47:31.924Z,2.7
2019-01-06T04:48:31.944Z,3.2
2019-01-06T04:49:31.982Z,3.2
2019-01-06T04:50:31.928Z,3
2019-01-06T04:51:31.925Z,3.1
2019-01-06T04:52:31.926Z,3.2
2019-01-06T04:53:31.927Z,2.9
2019-01-06T04:54:31.990Z,2.7
2019-01-06T04:55:31.916Z,2.5
2019-01-06T04:56:31.941Z,2.3
2019-01-06T04:57:31.981Z,2.1
2019-01-06T04:58:31.934Z,1.9
2019-01-06T04:59:31.978Z,2
2019-01-06T05:00:31.914Z,2.1
2019-01-06T05:01:31.937Z,2.2
2019-01-06T05:02:32.008Z,1.9
2019-01-06T05:03:31.921Z,1.8
2019-01-06T05:04:31.920Z,1.7
2019-01-06T05:05:31.915Z,1.7
2019-01-06T05:06:31.903Z,1.6
2019-01-06T05:07:32.008Z,1.6
2019-01-06T05:08:31.974Z,1.8
2019-01-06T05:09:31.919Z,2.1
2019-01-06T05:10:31.990Z,2.4
2019-01-06T05:11:31.916Z,2.4
2019-01-06T05:12:31.968Z,2.4
2019-01-06T05:13:31.916Z,2.1
2019-01-06T05:14:31.979Z,1.9
2019-01-06T05:15:31.911Z,2
2019-01-06T05:16:31.907Z,1.8
2019-01-06T05:17:31.907Z,1.9
2019-01-06T05:18:31.916Z,2
2019-01-06T05:19:31.969Z,1.9
2019-01-06T05:20:31.909Z,1.8
2019-01-06T05:21:31.996Z,1.8
2019-01-06T05:22:31.909Z,1.7
2019-01-06T05:23:31.919Z,1.6
2019-01-06T05:24:31.985Z,1.5
2019-01-06T05:25:31.924Z,1.6
2019-01-06T05:26:31.911Z,1.6
2019-01-06T05:27:31.891Z,1.8
2019-01-06T05:28:31.913Z,1.9
2019-01-06T05:29:31.984Z,1.7
2019-01-06T05:30:31.912Z,1.8
2019-01-06T05:31:31.930Z,1.6
2019-01-06T05:32:31.923Z,1.5
2019-01-06T05:33:31.968Z,1.3
2019-01-06T05:34:31.896Z,1.2
2019-01-06T05:35:31.904Z,1.1
2019-01-06T05:36:31.960Z,1
2019-01-06T05:37:31.905Z,0.9
2019-01-06T05:38:31.953Z,0.8
2019-01-06T05:39:31.903Z,0.7
2019-01-06T05:40:31.902Z,0.7
2019-01-06T05:41:31.985Z,0.6
2019-01-06T05:42:31.907Z,0.5
2019-01-06T05:43:31.964Z,0.5
2019-01-06T05:44:31.883Z,0.4
2019-01-06T05:45:31.985Z,0.4
2019-01-06T05:46:31.902Z,0.4
2019-01-06T05:47:31.894Z,0.3
2019-01-06T05:48:31.901Z,0.3
2019-01-06T05:49:31.890Z,0.3
2019-01-06T05:50:31.978Z,0.2
2019-01-06T05:51:31.904Z,0.2
2019-01-06T05:52:41.805Z,0.2
2019-01-06T05:53:31.909Z,0.2
2019-01-06T05:54:31.953Z,0.2
2019-01-06T05:55:31.879Z,0.1
2019-01-06T05:56:31.905Z,0.1
2019-01-06T05:57:31.897Z,0.1
2019-01-06T05:58:31.992Z,0.1
2019-01-06T05:59:31.896Z,0.1
2019-01-06T06:00:31.876Z,0.1
2019-01-06T06:01:31.890Z,0.1
2019-01-06T06:02:31.892Z,0.1
2019-01-06T06:03:31.960Z,0.1
2019-01-06T06:04:31.889Z,0.1
2019-01-06T06:05:31.887Z,0.1
2019-01-06T06:06:31.900Z,0
2019-01-06T06:07:31.944Z,0
2019-01-06T06:08:31.902Z,0
2019-01-06T06:09:31.902Z,0
2019-01-06T06:10:31.887Z,0
2019-01-06T06:11:31.875Z,0
2019-01-06T06:12:31.959Z,0
2019-01-06T06:13:31.886Z,0
2019-01-06T06:14:31.951Z,0
2019-01-06T06:15:31.897Z,0
2019-01-06T06:16:31.878Z,0
2019-01-06T06:17:31.888Z,0
2019-01-06T06:18:31.944Z,0
2019-01-06T06:19:31.891Z,0
2019-01-06T06:20:31.946Z,0
2019-01-06T06:21:31.885Z,0
2019-01-06T06:22:31.930Z,0
2019-01-06T06:23:31.895Z,0
2019-01-06T06:24:31.889Z,0
2019-01-06T06:25:31.895Z,0
2019-01-06T06:26:31.904Z,0
2019-01-06T06:27:31.929Z,0
2019-01-06T06:28:31.864Z,0
2019-01-06T06:29:31.881Z,0
2019-01-06T06:30:32.614Z,0
2019-01-06T06:31:31.883Z,0
2019-01-06T06:32:31.933Z,0
2019-01-06T06:33:31.994Z,0
2019-01-06T06:34:31.881Z,0
2019-01-06T06:35:31.875Z,0
2019-01-06T06:36:31.886Z,0
2019-01-06T06:37:31.943Z,0
2019-01-06T06:38:31.857Z,0
2019-01-06T06:39:31.874Z,0
2019-01-06T06:40:31.931Z,0.1
2019-01-06T06:41:31.872Z,0.1
2019-01-06T06:42:31.872Z,0.1
2019-01-06T06:43:31.882Z,0.2
2019-01-06T06:44:31.951Z,0.4
2019-01-06T06:45:31.872Z,0.5
2019-01-06T06:46:31.873Z,0.6
2019-01-06T06:47:31.882Z,0.6
2019-01-06T06:48:31.951Z,0.7
2019-01-06T06:49:31.931Z,1
2019-01-06T06:50:31.872Z,1
2019-01-06T06:51:31.882Z,0.9
2019-01-06T06:52:31.873Z,0.8
2019-01-06T06:53:31.868Z,1.1
2019-01-06T06:54:31.924Z,1.1
2019-01-06T06:55:31.868Z,1
2019-01-06T06:56:31.876Z,0.9
2019-01-06T06:57:31.869Z,0.8
2019-01-06T06:58:31.865Z,1
2019-01-06T06:59:31.937Z,1.3
2019-01-06T07:00:31.861Z,1.6
2019-01-06T07:01:31.916Z,1.9
2019-01-06T07:02:31.922Z,1.8
2019-01-06T07:03:31.868Z,1.7
2019-01-06T07:04:31.862Z,1.5
2019-01-06T07:05:31.856Z,1.4
2019-01-06T07:06:31.923Z,1.5
2019-01-06T07:07:31.859Z,1.4
2019-01-06T07:08:31.867Z,1.3
2019-01-06T07:09:31.857Z,1.1
2019-01-06T07:10:31.858Z,1.3
2019-01-06T07:11:31.921Z,1.5
2019-01-06T07:12:31.865Z,1.5
2019-01-06T07:13:31.923Z,1.6
2019-01-06T07:14:31.864Z,1.8
2019-01-06T07:15:31.861Z,2
2019-01-06T07:16:31.921Z,1.9
2019-01-06T07:17:31.943Z,1.7
2019-01-06T07:18:31.857Z,1.8
2019-01-06T07:19:31.861Z,1.7
2019-01-06T07:20:31.868Z,2.1
2019-01-06T07:21:31.944Z,2.2
2019-01-06T07:22:31.836Z,2.1
2019-01-06T07:23:31.862Z,1.9
2019-01-06T07:24:31.901Z,2.4
2019-01-06T07:25:31.853Z,3.3
2019-01-06T07:26:31.931Z,3.4
2019-01-06T07:27:31.839Z,3.5
2019-01-06T07:28:31.922Z,3.4
2019-01-06T07:29:31.840Z,3.4
2019-01-06T07:30:31.847Z,3.5
2019-01-06T07:31:31.847Z,3.3
2019-01-06T07:32:31.858Z,3.4
2019-01-06T07:33:31.894Z,3.6
2019-01-06T07:34:31.849Z,3.8
2019-01-06T07:35:31.852Z,4
2019-01-06T07:36:31.841Z,4
2019-01-06T07:37:31.901Z,3.9
2019-01-06T07:38:31.886Z,3.8
2019-01-06T07:39:31.903Z,3.5
2019-01-06T07:40:31.908Z,3.2
2019-01-06T07:41:31.837Z,2.9
2019-01-06T07:42:31.853Z,2.8
2019-01-06T07:43:31.852Z,2.5
2019-01-06T07:44:31.891Z,2.3
2019-01-06T07:45:31.831Z,2.3
2019-01-06T07:46:31.903Z,2.6
2019-01-06T07:47:31.842Z,2.6
2019-01-06T07:48:31.916Z,2.6
2019-01-06T07:49:31.822Z,2.9
2019-01-06T07:50:31.838Z,3.1
2019-01-06T07:51:31.841Z,3.1
2019-01-06T07:52:31.836Z,2.9
2019-01-06T07:53:31.915Z,2.9
2019-01-06T07:54:31.825Z,2.8
2019-01-06T07:55:31.854Z,2.6
2019-01-06T07:56:31.897Z,2.3
2019-01-06T07:57:31.907Z,2.1
2019-01-06T07:58:31.829Z,1.9
2019-01-06T07:59:31.840Z,1.9
2019-01-06T08:00:31.822Z,1.7
2019-01-06T08:01:31.922Z,1.7
2019-01-06T08:02:31.843Z,1.9
2019-01-06T08:03:31.828Z,1.7
2019-01-06T08:04:31.829Z,1.6
2019-01-06T08:05:31.817Z,1.4
2019-01-06T08:06:31.880Z,1.3
2019-01-06T08:07:31.910Z,1.2
2019-01-06T08:08:31.830Z,1
2019-01-06T08:09:31.901Z,0.9
2019-01-06T08:10:31.907Z,0.9
2019-01-06T08:11:31.818Z,0.8
2019-01-06T08:12:31.828Z,0.7
2019-01-06T08:13:31.906Z,0.6
2019-01-06T08:14:31.834Z,0.7
2019-01-06T08:15:31.820Z,0.9
2019-01-06T08:16:31.895Z,0.8
2019-01-06T08:17:31.827Z,0.7
2019-01-06T08:18:31.831Z,0.7
2019-01-06T08:19:31.820Z,0.6
2019-01-06T08:20:32.802Z,0.6
2019-01-06T08:21:31.893Z,0.7
2019-01-06T08:22:31.807Z,0.6
2019-01-06T08:23:31.825Z,0.6
2019-01-06T08:24:31.886Z,0.5
2019-01-06T08:25:31.823Z,0.5
2019-01-06T08:26:31.898Z,0.4
2019-01-06T08:27:31.800Z,0.4
2019-01-06T08:28:31.819Z,0.4
2019-01-06T08:29:31.810Z,0.9
2019-01-06T08:30:31.869Z,1.3
2019-01-06T08:31:31.810Z,1.3
2019-01-06T08:32:31.866Z,1.6
2019-01-06T08:33:31.867Z,1.8
2019-01-06T08:34:31.815Z,2
2019-01-06T08:35:31.811Z,2
2019-01-06T08:36:31.809Z,1.9
2019-01-06T08:37:31.915Z,1.7
2019-01-06T08:38:31.799Z,1.5
2019-01-06T08:39:31.824Z,1.4
2019-01-06T08:40:31.807Z,1.2
2019-01-06T08:41:31.837Z,1.1
2019-01-06T08:42:32.036Z,1
2019-01-06T08:43:33.042Z,1
2019-01-06T08:44:31.793Z,1.1
2019-01-06T08:45:31.885Z,1.1
2019-01-06T08:46:31.812Z,1
2019-01-06T08:47:31.878Z,0.9
2019-01-06T08:48:31.827Z,1
2019-01-06T08:49:31.795Z,1.1
2019-01-06T08:50:31.809Z,1.2
2019-01-06T08:51:33.348Z,1.4
2019-01-06T08:52:31.799Z,1.4
2019-01-06T08:53:32.089Z,1.2
2019-01-06T08:54:32.590Z,1.1
2019-01-06T08:55:32.166Z,1
2019-01-06T08:56:32.498Z,0.9
2019-01-06T08:57:34.696Z,0.8
2019-01-06T08:58:31.946Z,0.8
2019-01-06T08:59:31.788Z,0.7
2019-01-06T09:00:32.833Z,0.6
2019-01-06T09:01:31.829Z,0.6
2019-01-06T09:02:31.877Z,0.5
2019-01-06T09:03:31.804Z,0.5
2019-01-06T09:04:31.783Z,0.8
2019-01-06T09:05:31.884Z,1.1
2019-01-06T09:06:31.798Z,1.4
2019-01-06T09:07:31.793Z,1.6
2019-01-06T09:08:31.782Z,1.9
2019-01-06T09:09:31.787Z,1.9
2019-01-06T09:10:31.862Z,2
2019-01-06T09:11:31.788Z,1.8
2019-01-06T09:12:31.779Z,1.7
2019-01-06T09:13:31.772Z,1.5
2019-01-06T09:14:31.858Z,1.4
2019-01-06T09:15:31.903Z,1.2
2019-01-06T09:16:31.852Z,1.1
2019-01-06T09:17:31.833Z,1
2019-01-06T09:18:31.789Z,0.9
2019-01-06T09:19:31.770Z,0.8
2019-01-06T09:20:31.871Z,1.1
2019-01-06T09:21:31.784Z,1.7
2019-01-06T09:22:31.776Z,2.2
2019-01-06T09:23:31.789Z,2.4
2019-01-06T09:24:31.889Z,3
2019-01-06T09:25:31.801Z,3.5
2019-01-06T09:26:31.778Z,4
2019-01-06T09:27:31.789Z,4
2019-01-06T09:28:31.783Z,4.4
2019-01-06T09:29:32.455Z,4.6
2019-01-06T09:30:31.795Z,4.5
2019-01-06T09:31:31.857Z,4.7
2019-01-06T09:32:31.794Z,5.1
2019-01-06T09:33:31.761Z,5.3
2019-01-06T09:34:31.796Z,5.3
2019-01-06T09:35:31.784Z,5.6
2019-01-06T09:36:31.867Z,5.7
2019-01-06T09:37:31.811Z,5.8
2019-01-06T09:38:31.834Z,5.7
2019-01-06T09:39:31.787Z,5.9
2019-01-06T09:40:31.782Z,6
2019-01-06T09:41:31.795Z,5.7
2019-01-06T09:42:31.853Z,5.3
2019-01-06T09:43:31.781Z,5
2019-01-06T09:44:31.774Z,4.9
2019-01-06T09:45:31.803Z,5.1
2019-01-06T09:46:31.771Z,5
2019-01-06T09:47:31.855Z,4.8
2019-01-06T09:48:31.775Z,4.7
2019-01-06T09:49:31.774Z,4.2
2019-01-06T09:50:31.794Z,3.8
2019-01-06T09:51:32.005Z,3.5
2019-01-06T09:52:31.851Z,3.1
2019-01-06T09:53:31.835Z,3.5
2019-01-06T09:54:31.769Z,4
2019-01-06T09:55:31.780Z,4.2
2019-01-06T09:56:31.839Z,4.4
2019-01-06T09:57:31.768Z,4.1
2019-01-06T09:58:31.774Z,4.8
2019-01-06T09:59:31.850Z,5.6
2019-01-06T10:00:31.754Z,6.2
2019-01-06T10:01:31.772Z,6.8
2019-01-06T10:02:31.900Z,7.2
2019-01-06T10:03:33.859Z,7.5
2019-01-06T10:04:35.083Z,7.6
2019-01-06T10:05:32.390Z,7.7
2019-01-06T10:06:33.551Z,7.7
2019-01-06T10:07:33.675Z,7.4
2019-01-06T10:08:33.701Z,6.9
2019-01-06T10:09:33.619Z,6.7
2019-01-06T10:10:33.446Z,6.7
2019-01-06T10:11:32.880Z,6.7
2019-01-06T10:12:31.764Z,6.9
2019-01-06T10:13:31.783Z,7.2
2019-01-06T10:14:31.834Z,7.1
2019-01-06T10:15:31.761Z,7.1
2019-01-06T10:16:31.762Z,7.3
2019-01-06T10:17:31.760Z,7.5
2019-01-06T10:18:31.764Z,7.3
2019-01-06T10:19:31.899Z,7
2019-01-06T10:20:31.753Z,6.9
2019-01-06T10:21:31.774Z,6.9
2019-01-06T10:22:31.749Z,7.1
2019-01-06T10:23:31.761Z,7.1
2019-01-06T10:24:31.832Z,7
2019-01-06T10:25:31.817Z,6.8
2019-01-06T10:26:31.761Z,6.7
2019-01-06T10:27:31.759Z,6.8
2019-01-06T10:28:31.776Z,7.1
2019-01-06T10:29:32.435Z,7.2
2019-01-06T10:30:31.859Z,7.2
2019-01-06T10:31:31.750Z,7.1
2019-01-06T10:32:31.757Z,7.4
2019-01-06T10:33:31.864Z,7.5
2019-01-06T10:34:31.769Z,7.4
2019-01-06T10:35:31.818Z,7.2
2019-01-06T10:36:31.745Z,7.2
2019-01-06T10:37:32.944Z,7.2
2019-01-06T10:38:31.742Z,7.1
2019-01-06T10:39:31.752Z,7.2
2019-01-06T10:40:31.737Z,7.4
2019-01-06T10:41:31.807Z,7.6
2019-01-06T10:42:31.833Z,7.5
2019-01-06T10:43:34.743Z,7.4
2019-01-06T10:44:31.734Z,7.9
2019-01-06T10:45:31.749Z,7.9
2019-01-06T10:46:31.769Z,8
2019-01-06T10:47:31.830Z,8.2
2019-01-06T10:48:31.761Z,8.4
2019-01-06T10:49:31.733Z,8.8
2019-01-06T10:50:31.753Z,8.4
2019-01-06T10:51:31.818Z,8.9
2019-01-06T10:52:31.753Z,8.8
2019-01-06T10:53:31.822Z,8.4
2019-01-06T10:54:31.733Z,8.6
2019-01-06T10:55:31.764Z,8.8
2019-01-06T10:56:31.748Z,9
2019-01-06T10:57:31.912Z,9.1
2019-01-06T10:58:31.747Z,9.1
2019-01-06T10:59:31.741Z,9.8
2019-01-06T11:00:31.748Z,10.1
2019-01-06T11:01:31.814Z,10
2019-01-06T11:02:31.868Z,9.6
2019-01-06T11:03:31.756Z,9.4
2019-01-06T11:04:31.984Z,9.6
2019-01-06T11:05:31.730Z,9.5
2019-01-06T11:06:32.443Z,9.6
2019-01-06T11:07:31.809Z,9.4
2019-01-06T11:08:31.747Z,9.2
2019-01-06T11:09:31.743Z,9.1
2019-01-06T11:10:31.734Z,8.9
2019-01-06T11:11:31.730Z,8.8
2019-01-06T11:12:31.755Z,8.4
2019-01-06T11:13:31.888Z,7.9
2019-01-06T11:14:31.750Z,7.7
2019-01-06T11:15:31.734Z,8.1
2019-01-06T11:16:31.736Z,7.9
2019-01-06T11:17:31.748Z,8
2019-01-06T11:18:31.836Z,8.3
2019-01-06T11:19:31.740Z,8.4
2019-01-06T11:20:31.821Z,8.8
2019-01-06T11:21:31.803Z,9
2019-01-06T11:22:31.734Z,8.8
2019-01-06T11:23:31.745Z,8.6
2019-01-06T11:24:31.814Z,8.6
2019-01-06T11:25:31.804Z,8.6
2019-01-06T11:26:31.738Z,8.9
2019-01-06T11:27:31.726Z,9.2
2019-01-06T11:28:31.742Z,9.7
2019-01-06T11:29:31.749Z,9.6
2019-01-06T11:30:31.821Z,9.3
2019-01-06T11:31:31.744Z,9.3
2019-01-06T11:32:31.715Z,9.5
2019-01-06T11:33:31.723Z,9.6
2019-01-06T11:34:31.798Z,8.8
2019-01-06T11:35:31.736Z,8.6
2019-01-06T11:36:31.822Z,8.4
2019-01-06T11:37:31.723Z,8.5
2019-01-06T11:38:31.725Z,8.5
2019-01-06T11:39:31.789Z,8.8
2019-01-06T11:40:31.720Z,9
2019-01-06T11:41:31.733Z,9.2
2019-01-06T11:42:31.807Z,9.8
2019-01-06T11:43:31.713Z,10.2
2019-01-06T11:44:31.730Z,11.1
2019-01-06T11:45:31.782Z,11.1
2019-01-06T11:46:31.809Z,11.7
2019-01-06T11:47:31.737Z,12.2
2019-01-06T11:48:31.718Z,12.1
2019-01-06T11:49:31.713Z,12.1
2019-01-06T11:50:31.797Z,12.4
2019-01-06T11:51:31.790Z,12.6
2019-01-06T11:52:31.733Z,12.8
2019-01-06T11:53:31.724Z,12.7
2019-01-06T11:54:31.709Z,12.7
2019-01-06T11:55:31.776Z,11.9
2019-01-06T11:56:31.718Z,11.1
2019-01-06T11:57:31.728Z,10.6
2019-01-06T11:58:31.724Z,9.7
2019-01-06T11:59:31.720Z,8.8
2019-01-06T12:00:31.752Z,8.6
2019-01-06T12:01:31.728Z,8.3
2019-01-06T12:02:38.754Z,8.2
2019-01-06T12:03:31.776Z,8
2019-01-06T12:04:31.733Z,7.6
2019-01-06T12:05:31.767Z,7.5
2019-01-06T12:06:31.718Z,7.1
2019-01-06T12:07:31.713Z,7
2019-01-06T12:08:31.730Z,6.8
2019-01-06T12:09:31.797Z,7.1
2019-01-06T12:10:31.796Z,7.2
2019-01-06T12:11:31.691Z,7.6
2019-01-06T12:12:31.722Z,7.9
2019-01-06T12:13:31.710Z,7.9
2019-01-06T12:14:31.708Z,7.7
2019-01-06T12:15:31.794Z,7.7
2019-01-06T12:16:31.694Z,7.7
2019-01-06T12:17:31.712Z,7.6
2019-01-06T12:18:31.712Z,7.9
2019-01-06T12:19:33.779Z,8.1
2019-01-06T12:20:31.793Z,8.1
2019-01-06T12:21:31.750Z,8.2
2019-01-06T12:22:31.702Z,8.4
2019-01-06T12:23:31.781Z,8.2
2019-01-06T12:24:31.703Z,8.5
2019-01-06T12:25:31.703Z,8.3
2019-01-06T12:26:31.711Z,8
2019-01-06T12:27:31.761Z,8.2
2019-01-06T12:28:31.704Z,8.1
2019-01-06T12:29:31.707Z,7.8
2019-01-06T12:30:31.716Z,7.5
2019-01-06T12:31:31.703Z,7.4
2019-01-06T12:32:31.766Z,7.1
2019-01-06T12:33:31.774Z,7.3
2019-01-06T12:34:31.760Z,7.3
2019-01-06T12:35:31.721Z,7.3
2019-01-06T12:36:31.696Z,7.5
2019-01-06T12:37:32.594Z,7.4
2019-01-06T12:38:31.774Z,7.4
2019-01-06T12:39:31.705Z,7.2
2019-01-06T12:40:31.703Z,7.5
2019-01-06T12:41:31.711Z,7.8
2019-01-06T12:42:31.702Z,7.9
2019-01-06T12:43:31.750Z,8.2
2019-01-06T12:44:31.683Z,8.5
2019-01-06T12:45:31.700Z,8.5
2019-01-06T12:46:31.762Z,8.4
2019-01-06T12:47:31.738Z,7.9
2019-01-06T12:48:31.715Z,7.7
2019-01-06T12:49:31.676Z,7.4
2019-01-06T12:50:31.715Z,7.5
2019-01-06T12:51:31.765Z,7.5
2019-01-06T12:52:31.705Z,7.4
2019-01-06T12:53:38.023Z,7.6
2019-01-06T12:54:31.745Z,8.1
2019-01-06T12:55:31.701Z,8
2019-01-06T12:56:31.707Z,8
2019-01-06T12:57:31.766Z,7.8
2019-01-06T12:58:31.692Z,7.8
2019-01-06T12:59:31.694Z,8
2019-01-06T13:00:31.749Z,7.9
2019-01-06T13:01:31.763Z,8.4
2019-01-06T13:02:31.707Z,8.4
2019-01-06T13:03:31.703Z,8.4
2019-01-06T13:04:31.696Z,8.5
2019-01-06T13:05:31.688Z,8.3
2019-01-06T13:06:31.773Z,8.4
2019-01-06T13:07:31.748Z,8.2
2019-01-06T13:08:31.690Z,7.9
2019-01-06T13:09:31.699Z,7.7
2019-01-06T13:10:31.759Z,7.6
2019-01-06T13:11:31.668Z,7.5
2019-01-06T13:12:31.676Z,7
2019-01-06T13:13:36.656Z,6.5
2019-01-06T13:14:31.670Z,6.1
2019-01-06T13:15:31.755Z,6
2019-01-06T13:16:31.676Z,5.7
2019-01-06T13:17:31.686Z,5.5
2019-01-06T13:18:31.677Z,5.3
2019-01-06T13:19:31.692Z,5.2
2019-01-06T13:20:31.754Z,5.4
2019-01-06T13:21:31.682Z,5.9
2019-01-06T13:22:31.692Z,6
2019-01-06T13:23:31.686Z,6.2
2019-01-06T13:24:34.245Z,6
2019-01-06T13:25:31.672Z,6.4
2019-01-06T13:26:31.669Z,6.9
2019-01-06T13:27:31.662Z,7
2019-01-06T13:28:31.762Z,7.2
2019-01-06T13:29:31.678Z,7.2
2019-01-06T13:30:31.674Z,7.8
2019-01-06T13:31:31.692Z,8.4
2019-01-06T13:32:31.742Z,8.5
2019-01-06T13:33:31.690Z,9.1
2019-01-06T13:34:33.254Z,10.2
2019-01-06T13:35:33.839Z,11
2019-01-06T13:36:31.783Z,11.3
2019-01-06T13:37:31.699Z,12.1
2019-01-06T13:38:31.807Z,12.6
2019-01-06T13:39:31.716Z,12.7
2019-01-06T13:40:31.709Z,13.1
2019-01-06T13:41:31.736Z,13.4
2019-01-06T13:42:32.234Z,13.4
2019-01-06T13:43:31.885Z,13.5
2019-01-06T13:44:31.702Z,13.3